Time;durP1;ratioP1;P1;durP2;ratioP2;P2;SDS_P1;SDS_P2;PMS_P1;PMS_P2;Temp;Humidity;BMP_temperature;BMP_pressure;BME280_temperature;BME280_humidity;BME280_pressure;Samples;Min_cycle;Max_cycle;Signal;HPM_P1;HPM_P2
2021/07/05 00:00:51;;;;;;;12.13;10.93;;;17.90;99.90;;;;;;5085731;28;20098;-66
2021/07/05 00:03:17;;;;;;;15.77;12.30;;;17.80;99.90;;;;;;5087809;28;20497;-65
2021/07/05 00:05:43;;;;;;;14.93;11.85;;;17.80;99.90;;;;;;5088647;28;20040;-65
2021/07/05 00:08:09;;;;;;;12.18;10.98;;;17.90;99.90;;;;;;5087246;28;20039;-65
2021/07/05 00:10:35;;;;;;;14.48;11.05;;;17.80;99.90;;;;;;5087420;28;20051;-66
2021/07/05 00:13:01;;;;;;;13.48;10.00;;;17.90;99.90;;;;;;5086554;28;20054;-65
2021/07/05 00:15:32;;;;;;;11.10;10.02;;;17.80;99.90;;;;;;5088331;28;20703;-65
2021/07/05 00:18:01;;;;;;;10.85;9.45;;;17.90;99.90;;;;;;5085786;28;20390;-65
2021/07/05 00:20:29;;;;;;;10.05;9.05;;;17.80;99.90;;;;;;5085033;28;20111;-65
2021/07/05 00:22:55;;;;;;;10.43;8.82;;;17.80;99.90;;;;;;5086234;28;20139;-65
2021/07/05 00:25:22;;;;;;;10.18;8.65;;;17.80;99.90;;;;;;5087603;28;20041;-65
2021/07/05 00:27:48;;;;;;;10.85;7.50;;;17.80;99.90;;;;;;5082763;28;20406;-65
2021/07/05 00:30:16;;;;;;;7.95;7.25;;;17.80;99.90;;;;;;5085575;28;20079;-65
2021/07/05 00:32:43;;;;;;;9.88;7.43;;;17.80;99.90;;;;;;5086317;28;20036;-65
2021/07/05 00:35:09;;;;;;;7.43;6.65;;;17.80;99.90;;;;;;5087483;28;20035;-65
2021/07/05 00:37:35;;;;;;;7.72;6.20;;;17.80;99.90;;;;;;5086744;28;20036;-65
2021/07/05 00:40:01;;;;;;;7.32;6.72;;;17.80;99.90;;;;;;5086253;28;20371;-65
2021/07/05 00:42:27;;;;;;;6.97;6.32;;;17.80;99.90;;;;;;5088568;28;20157;-65
2021/07/05 00:44:53;;;;;;;9.10;8.10;;;17.80;99.90;;;;;;5088481;28;20564;-66
2021/07/05 00:47:19;;;;;;;9.55;6.97;;;17.70;99.90;;;;;;5087714;28;20043;-65
2021/07/05 00:49:45;;;;;;;9.10;8.15;;;17.70;99.90;;;;;;5083216;28;20482;-65
2021/07/05 00:52:12;;;;;;;10.15;7.97;;;17.70;99.90;;;;;;5085806;28;20036;-65
2021/07/05 00:54:38;;;;;;;10.60;8.35;;;17.70;99.90;;;;;;5085927;28;20047;-65
2021/07/05 00:57:03;;;;;;;9.52;8.45;;;17.70;99.90;;;;;;5086193;28;20036;-65
2021/07/05 00:59:30;;;;;;;9.52;8.63;;;17.70;99.90;;;;;;5086253;28;20056;-65
2021/07/05 01:01:56;;;;;;;12.45;8.07;;;17.60;99.90;;;;;;5081790;28;20450;-65
2021/07/05 01:04:21;;;;;;;9.88;7.78;;;17.60;99.90;;;;;;5081761;28;20078;-65
2021/07/05 01:06:47;;;;;;;8.52;7.72;;;17.60;99.90;;;;;;5083219;28;20734;-65
2021/07/05 01:09:13;;;;;;;10.77;7.47;;;17.60;99.90;;;;;;5086045;28;20040;-65
2021/07/05 01:11:39;;;;;;;12.38;7.15;;;17.60;99.90;;;;;;5088305;28;20044;-65
2021/07/05 01:14:04;;;;;;;8.82;7.93;;;17.60;99.90;;;;;;5086301;28;20043;-65
2021/07/05 01:16:30;;;;;;;10.80;7.85;;;17.60;99.90;;;;;;5085330;28;20406;-65
2021/07/05 01:18:57;;;;;;;8.23;6.45;;;17.60;99.90;;;;;;5085579;28;20028;-65
2021/07/05 01:21:23;;;;;;;8.55;6.50;;;17.60;99.90;;;;;;5083670;28;20041;-65
2021/07/05 01:23:49;;;;;;;8.00;5.57;;;17.60;99.90;;;;;;5085638;28;21734;-65
2021/07/05 01:26:15;;;;;;;10.10;6.32;;;17.60;99.90;;;;;;5085242;28;20494;-65
2021/07/05 01:28:41;;;;;;;6.25;5.65;;;17.60;99.90;;;;;;5086042;28;20039;-65
2021/07/05 01:31:07;;;;;;;6.85;5.47;;;17.60;99.90;;;;;;5084063;28;20036;-65
2021/07/05 01:33:32;;;;;;;7.00;5.90;;;17.50;99.90;;;;;;5085191;28;20451;-65
2021/07/05 01:35:58;;;;;;;11.35;6.03;;;17.50;99.90;;;;;;5086141;28;21086;-65
2021/07/05 01:38:24;;;;;;;7.30;6.53;;;17.50;99.90;;;;;;5087204;28;20482;-65
2021/07/05 01:40:56;;;;;;;9.30;6.60;;;17.50;99.90;;;;;;5082192;28;20490;-65
2021/07/05 01:43:22;;;;;;;8.40;5.50;;;17.50;99.90;;;;;;5085737;28;20040;-65
2021/07/05 01:45:48;;;;;;;8.63;5.60;;;17.50;99.90;;;;;;5085964;28;20040;-65
2021/07/05 01:48:14;;;;;;;9.18;6.68;;;17.50;99.90;;;;;;5088670;28;20081;-65
2021/07/05 01:50:40;;;;;;;8.02;6.10;;;17.40;99.90;;;;;;5091148;28;20044;-65
2021/07/05 01:53:07;;;;;;;10.90;6.00;;;17.40;99.90;;;;;;5089470;28;20048;-65
2021/07/05 01:55:34;;;;;;;8.20;6.63;;;17.40;99.90;;;;;;5090156;28;20036;-65
2021/07/05 01:58:06;;;;;;;9.93;8.82;;;17.30;99.90;;;;;;5087473;28;20036;-65
2021/07/05 02:00:33;;;;;;;12.80;9.35;;;17.40;99.90;;;;;;5089524;28;21578;-65
2021/07/05 02:03:00;;;;;;;9.98;7.97;;;17.30;99.90;;;;;;5091041;28;20032;-65
2021/07/05 02:05:27;;;;;;;8.57;7.78;;;17.40;99.90;;;;;;5084418;28;20085;-65
2021/07/05 02:07:53;;;;;;;11.77;9.15;;;17.30;99.90;;;;;;5091838;28;20055;-65
2021/07/05 02:10:24;;;;;;;12.70;9.60;;;17.30;99.90;;;;;;5087610;28;20036;-65
2021/07/05 02:12:52;;;;;;;14.90;9.00;;;17.30;99.90;;;;;;5089421;28;20067;-65
2021/07/05 02:15:18;;;;;;;12.13;8.90;;;17.20;99.90;;;;;;5087708;28;20052;-65
2021/07/05 02:17:44;;;;;;;15.93;11.35;;;17.20;99.90;;;;;;5089697;28;20045;-65
2021/07/05 02:20:21;;;;;;;17.38;12.32;;;17.20;99.90;;;;;;5087392;28;21263;-65
2021/07/05 02:22:50;;;;;;;20.80;13.35;;;17.20;99.90;;;;;;5084801;28;20040;-65
2021/07/05 02:25:17;;;;;;;21.42;13.60;;;17.20;99.90;;;;;;5081126;28;20053;-65
2021/07/05 02:27:44;;;;;;;21.42;14.68;;;17.20;99.90;;;;;;5083295;28;20040;-65
2021/07/05 02:30:20;;;;;;;18.52;13.75;;;17.20;99.90;;;;;;5080986;28;20036;-65
2021/07/05 02:32:47;;;;;;;19.10;13.75;;;17.10;99.90;;;;;;5090653;28;20040;-65
2021/07/05 02:35:15;;;;;;;21.00;14.63;;;17.20;99.90;;;;;;5086582;28;20961;-65
2021/07/05 02:37:43;;;;;;;26.08;15.85;;;17.10;99.90;;;;;;5089145;28;20595;-65
2021/07/05 02:40:12;;;;;;;20.50;14.50;;;17.10;99.90;;;;;;5087532;28;20065;-65
2021/07/05 02:42:39;;;;;;;24.48;16.20;;;17.10;99.90;;;;;;5086562;28;20067;-65
2021/07/05 02:45:08;;;;;;;20.08;14.57;;;17.00;99.90;;;;;;5086664;28;20596;-65
2021/07/05 02:47:34;;;;;;;24.30;16.85;;;17.00;99.90;;;;;;5085758;28;20032;-65
2021/07/05 02:50:00;;;;;;;25.27;16.98;;;17.00;99.90;;;;;;5082734;28;21017;-65
2021/07/05 02:52:26;;;;;;;21.30;16.02;;;17.00;99.90;;;;;;5083881;28;20043;-65
2021/07/05 02:54:51;;;;;;;22.65;16.48;;;16.90;99.90;;;;;;5086679;28;20040;-65
2021/07/05 02:57:29;;;;;;;21.58;16.15;;;16.90;99.90;;;;;;5089777;28;20107;-65
2021/07/05 03:00:08;;;;;;;23.35;18.65;;;16.90;99.90;;;;;;5086106;28;20097;-65
2021/07/05 03:02:36;;;;;;;30.95;20.77;;;16.90;99.90;;;;;;5088654;28;20047;-65
2021/07/05 03:05:04;;;;;;;29.92;20.48;;;16.90;99.90;;;;;;5087180;28;20047;-65
2021/07/05 03:07:30;;;;;;;24.85;20.13;;;16.90;99.90;;;;;;5088907;28;20032;-65
2021/07/05 03:09:55;;;;;;;24.60;21.05;;;16.80;99.90;;;;;;5088768;28;20508;-65
2021/07/05 03:12:21;;;;;;;29.80;23.30;;;16.80;99.90;;;;;;5088965;28;20035;-65
2021/07/05 03:14:47;;;;;;;28.88;22.38;;;16.80;99.90;;;;;;5088990;28;20072;-65
2021/07/05 03:17:13;;;;;;;31.17;25.83;;;16.80;99.90;;;;;;5088727;28;20064;-65
2021/07/05 03:19:40;;;;;;;32.25;25.77;;;16.70;99.90;;;;;;5086940;28;20036;-65
2021/07/05 03:22:05;;;;;;;36.70;26.58;;;16.70;99.90;;;;;;5088286;28;20058;-65
2021/07/05 03:24:31;;;;;;;30.98;24.65;;;16.70;99.90;;;;;;5087568;28;20043;-65
2021/07/05 03:26:57;;;;;;;34.63;26.23;;;16.70;99.90;;;;;;5088821;28;20110;-65
2021/07/05 03:29:23;;;;;;;31.83;26.38;;;16.60;99.90;;;;;;5084655;28;20102;-65
2021/07/05 03:31:49;;;;;;;33.88;26.10;;;16.60;99.90;;;;;;5084439;28;20044;-65
2021/07/05 03:34:16;;;;;;;30.80;24.50;;;16.60;99.90;;;;;;5084389;28;20044;-65
2021/07/05 03:36:41;;;;;;;32.45;25.42;;;16.60;99.90;;;;;;5085765;28;20046;-65
2021/07/05 03:39:07;;;;;;;28.77;23.70;;;16.70;99.90;;;;;;5087475;28;20047;-65
2021/07/05 03:41:33;;;;;;;32.03;24.48;;;16.70;99.90;;;;;;5084904;28;20044;-65
2021/07/05 03:43:58;;;;;;;29.40;23.98;;;16.70;99.90;;;;;;5087769;28;20450;-65
2021/07/05 03:46:24;;;;;;;25.02;22.30;;;16.70;99.90;;;;;;5087264;28;20072;-65
2021/07/05 03:48:50;;;;;;;32.22;24.60;;;16.70;99.90;;;;;;5086589;28;20047;-65
2021/07/05 03:51:16;;;;;;;29.17;23.88;;;16.70;99.90;;;;;;5085686;28;20059;-65
2021/07/05 03:53:42;;;;;;;26.48;23.50;;;16.70;99.90;;;;;;5088123;28;20064;-65
2021/07/05 03:56:08;;;;;;;31.08;23.67;;;16.70;99.90;;;;;;5085420;28;20039;-65
2021/07/05 03:58:33;;;;;;;26.17;23.45;;;16.70;99.90;;;;;;5086986;28;20039;-65
2021/07/05 04:01:00;;;;;;;25.05;22.35;;;16.70;99.90;;;;;;5086189;28;20123;-65
2021/07/05 04:03:30;;;;;;;29.13;24.10;;;16.70;99.90;;;;;;5068513;28;20512;-65
2021/07/05 04:05:58;;;;;;;26.48;23.58;;;16.80;99.90;;;;;;5083894;28;20036;-65
2021/07/05 04:08:26;;;;;;;27.13;24.17;;;16.80;99.90;;;;;;5088913;28;20031;-65
2021/07/05 04:10:52;;;;;;;29.52;24.73;;;16.80;99.90;;;;;;5085610;28;20036;-65
2021/07/05 04:13:18;;;;;;;27.00;24.17;;;16.90;99.90;;;;;;5086829;28;20089;-65
2021/07/05 04:15:44;;;;;;;29.17;26.25;;;16.90;99.90;;;;;;5086728;28;20036;-65
2021/07/05 04:18:09;;;;;;;26.60;24.02;;;17.00;99.90;;;;;;5082956;28;20037;-65
2021/07/05 04:20:35;;;;;;;26.42;23.65;;;17.00;99.90;;;;;;5087906;28;20059;-65
2021/07/05 04:23:01;;;;;;;27.95;25.15;;;17.00;99.90;;;;;;5086500;28;20123;-65
2021/07/05 04:25:27;;;;;;;27.08;23.83;;;17.00;99.90;;;;;;5086110;28;20115;-65
2021/07/05 04:27:54;;;;;;;26.70;22.35;;;17.10;99.90;;;;;;5089456;28;20028;-65
2021/07/05 04:30:21;;;;;;;23.20;20.90;;;17.20;99.90;;;;;;5087113;28;20043;-65
2021/07/05 04:32:47;;;;;;;24.67;22.17;;;17.30;99.90;;;;;;5086860;28;20028;-65
2021/07/05 04:35:16;;;;;;;24.98;22.60;;;17.30;99.90;;;;;;5088311;28;20035;-65
2021/07/05 04:37:43;;;;;;;25.10;22.42;;;17.30;99.90;;;;;;5086889;28;20546;-65
2021/07/05 04:40:12;;;;;;;26.70;23.98;;;17.20;99.90;;;;;;5088217;28;20044;-65
2021/07/05 04:42:38;;;;;;;26.55;23.55;;;17.20;99.90;;;;;;5086820;28;20063;-65
2021/07/05 04:45:06;;;;;;;24.90;22.25;;;17.20;99.90;;;;;;5087954;28;20036;-65
2021/07/05 04:47:32;;;;;;;24.08;21.60;;;17.20;99.90;;;;;;5084032;28;20042;-65
2021/07/05 04:49:58;;;;;;;26.25;23.55;;;17.20;99.90;;;;;;5086154;28;20482;-65
2021/07/05 04:52:24;;;;;;;24.30;21.75;;;17.20;99.90;;;;;;5085653;28;20043;-65
2021/07/05 04:54:49;;;;;;;25.90;23.20;;;17.20;99.90;;;;;;5088330;28;20043;-65
2021/07/05 04:57:15;;;;;;;23.10;20.77;;;17.20;99.90;;;;;;5084608;28;20067;-65
2021/07/05 04:59:41;;;;;;;23.88;21.58;;;17.20;99.90;;;;;;5086409;28;20095;-65
2021/07/05 05:02:12;;;;;;;22.60;20.20;;;17.20;99.90;;;;;;5085969;28;20089;-65
2021/07/05 05:04:38;;;;;;;22.63;19.60;;;17.30;99.90;;;;;;5084480;28;20040;-65
2021/07/05 05:07:04;;;;;;;19.42;17.55;;;17.30;99.90;;;;;;5085368;28;20032;-65
2021/07/05 05:09:30;;;;;;;18.90;17.17;;;17.40;99.90;;;;;;5086710;28;20047;-65
2021/07/05 05:11:56;;;;;;;19.80;17.80;;;17.40;99.90;;;;;;5088037;28;20040;-65
2021/07/05 05:14:21;;;;;;;18.85;17.02;;;17.40;99.90;;;;;;5087368;28;20036;-65
2021/07/05 05:16:48;;;;;;;18.77;16.83;;;17.40;99.90;;;;;;5084309;28;20036;-65
2021/07/05 05:19:14;;;;;;;17.45;15.30;;;17.60;99.90;;;;;;5086782;28;20070;-65
2021/07/05 05:21:40;;;;;;;20.15;16.65;;;17.60;99.90;;;;;;5087371;28;20058;-65
2021/07/05 05:24:06;;;;;;;17.40;15.60;;;17.60;99.90;;;;;;5085064;28;20036;-65
2021/07/05 05:26:31;;;;;;;16.52;15.00;;;17.60;99.90;;;;;;5080912;28;20037;-65
2021/07/05 05:28:57;;;;;;;17.80;16.10;;;17.50;99.90;;;;;;5082131;28;21164;-65
2021/07/05 05:31:24;;;;;;;15.63;14.27;;;17.50;99.90;;;;;;5080208;28;20444;-65
2021/07/05 05:33:49;;;;;;;18.23;16.48;;;17.40;99.90;;;;;;5083393;28;20041;-65
2021/07/05 05:36:15;;;;;;;17.73;15.90;;;17.50;99.90;;;;;;5081385;28;20040;-65
2021/07/05 05:38:46;;;;;;;17.60;15.90;;;17.40;99.90;;;;;;5084057;28;20040;-65
2021/07/05 05:41:12;;;;;;;17.38;15.88;;;17.50;99.90;;;;;;5083796;28;20036;-65
2021/07/05 05:43:38;;;;;;;19.70;16.08;;;17.40;99.90;;;;;;5086954;28;20390;-65
2021/07/05 05:46:03;;;;;;;18.73;16.27;;;17.40;99.90;;;;;;5086843;28;20036;-65
2021/07/05 05:48:30;;;;;;;17.02;15.30;;;17.30;99.90;;;;;;5089083;28;20093;-65
2021/07/05 05:51:01;;;;;;;18.27;16.55;;;17.30;99.90;;;;;;5084866;28;20048;-65
2021/07/05 05:53:27;;;;;;;17.38;15.48;;;17.40;99.90;;;;;;5086555;28;20032;-65
2021/07/05 05:55:53;;;;;;;21.88;17.33;;;17.40;99.90;;;;;;5084967;28;21480;-65
2021/07/05 05:58:19;;;;;;;17.70;15.95;;;17.40;99.90;;;;;;5082631;28;20063;-65
2021/07/05 06:00:45;;;;;;;17.73;16.13;;;17.30;99.90;;;;;;5086741;28;20443;-65
2021/07/05 06:03:10;;;;;;;18.38;16.48;;;17.30;99.90;;;;;;5089688;28;20142;-65
2021/07/05 06:05:36;;;;;;;17.25;15.73;;;17.40;99.90;;;;;;5082784;28;20150;-65
2021/07/05 06:08:02;;;;;;;18.92;17.13;;;17.30;99.90;;;;;;5085534;28;20044;-65
2021/07/05 06:10:28;;;;;;;17.67;15.85;;;17.30;99.90;;;;;;5090068;28;20756;-65
2021/07/05 06:12:55;;;;;;;18.67;16.85;;;17.30;99.90;;;;;;5086951;28;20190;-65
2021/07/05 06:15:22;;;;;;;20.25;18.25;;;17.30;99.90;;;;;;5084095;28;20105;-65
2021/07/05 06:17:49;;;;;;;17.10;15.40;;;17.40;99.90;;;;;;5081543;28;20578;-65
2021/07/05 06:20:16;;;;;;;21.40;17.40;;;17.30;99.90;;;;;;5075906;28;20109;-65
2021/07/05 06:22:46;;;;;;;19.85;17.95;;;17.40;99.90;;;;;;5073617;28;20163;-65
2021/07/05 06:25:12;;;;;;;18.50;16.60;;;17.40;99.90;;;;;;5076120;28;20068;-65
2021/07/05 06:27:38;;;;;;;18.40;16.58;;;17.30;99.90;;;;;;5072597;28;20123;-65
2021/07/05 06:30:04;;;;;;;16.98;14.32;;;17.40;99.90;;;;;;5073234;28;20186;-65
2021/07/05 06:32:31;;;;;;;15.80;12.15;;;17.30;99.90;;;;;;5082345;28;20044;-65
2021/07/05 06:34:57;;;;;;;15.68;9.45;;;17.20;99.90;;;;;;5087167;28;20055;-65
2021/07/05 06:37:22;;;;;;;16.23;7.78;;;17.10;99.90;;;;;;5087048;28;20093;-65
2021/07/05 06:39:48;;;;;;;10.25;6.88;;;17.00;99.90;;;;;;5088501;28;20486;-65
2021/07/05 06:42:15;;;;;;;11.65;5.25;;;17.00;99.90;;;;;;5074447;28;20123;-65
2021/07/05 06:44:41;;;;;;;7.32;4.60;;;16.90;99.90;;;;;;5074626;28;20050;-65
2021/07/05 06:47:07;;;;;;;10.40;3.55;;;16.80;99.90;;;;;;5070628;28;20040;-65
2021/07/05 06:49:33;;;;;;;7.53;3.63;;;16.70;99.90;;;;;;5073258;28;20040;-65
2021/07/05 06:51:59;;;;;;;7.80;4.05;;;16.60;99.90;;;;;;5071947;28;22086;-64
2021/07/05 06:54:25;;;;;;;11.15;4.28;;;16.50;99.90;;;;;;5071271;28;20036;-65
2021/07/05 06:56:50;;;;;;;8.82;3.42;;;16.50;99.90;;;;;;5070143;28;20040;-65
2021/07/05 06:59:16;;;;;;;5.78;3.08;;;16.50;99.90;;;;;;5070549;28;20032;-65
2021/07/05 07:01:44;;;;;;;9.85;2.85;;;16.50;99.90;;;;;;5074741;28;20127;-65
2021/07/05 07:04:11;;;;;;;9.32;1.75;;;16.50;99.90;;;;;;5074773;28;20059;-65
2021/07/05 07:06:37;;;;;;;9.90;1.73;;;16.50;99.90;;;;;;5070559;28;20036;-65
2021/07/05 07:09:04;;;;;;;6.43;1.85;;;16.40;99.90;;;;;;5070029;28;21760;-65
2021/07/05 07:11:30;;;;;;;8.05;2.38;;;16.30;99.90;;;;;;5068656;28;20040;-65
2021/07/05 07:13:56;;;;;;;7.72;2.60;;;16.30;99.90;;;;;;5067928;28;20047;-65
2021/07/05 07:16:24;;;;;;;7.55;2.33;;;16.30;99.90;;;;;;5068801;28;20058;-65
2021/07/05 07:19:35;;;;;;;5.97;1.95;;;16.30;99.90;;;;;;5068755;28;20058;-65
2021/07/05 07:21:36;;;;;;;9.25;2.10;;;16.40;99.90;;;;;;5067450;28;20499;-65
2021/07/05 07:24:02;;;;;;;17.25;2.30;;;16.30;99.90;;;;;;5063195;28;20047;-65
2021/07/05 07:26:28;;;;;;;2.97;1.65;;;16.30;99.90;;;;;;5072283;28;20043;-65
2021/07/05 07:28:55;;;;;;;7.68;1.58;;;16.20;99.90;;;;;;5079931;28;20040;-65
2021/07/05 07:31:24;;;;;;;6.55;1.52;;;16.20;99.90;;;;;;5082341;28;20047;-65
2021/07/05 07:33:50;;;;;;;5.00;1.90;;;16.10;99.90;;;;;;5081311;28;20062;-65
2021/07/05 07:36:16;;;;;;;4.03;2.00;;;16.10;99.90;;;;;;5080286;28;20036;-65
2021/07/05 07:38:47;;;;;;;4.68;1.63;;;16.00;99.90;;;;;;5080230;28;20638;-64
2021/07/05 07:41:16;;;;;;;4.57;1.98;;;16.10;99.90;;;;;;5073846;28;21490;-65
2021/07/05 07:43:42;;;;;;;5.90;2.33;;;16.10;99.90;;;;;;5068036;28;20138;-65
2021/07/05 07:46:08;;;;;;;2.42;1.58;;;16.10;99.90;;;;;;5067367;28;20044;-65
2021/07/05 07:48:34;;;;;;;6.22;1.80;;;16.10;99.90;;;;;;5081299;28;20067;-65
2021/07/05 07:51:00;;;;;;;6.10;1.35;;;16.10;99.90;;;;;;5068598;28;20130;-65
2021/07/05 07:53:25;;;;;;;3.65;1.50;;;16.10;99.90;;;;;;5068432;28;20039;-65
2021/07/05 07:55:51;;;;;;;5.65;1.77;;;16.10;99.90;;;;;;5066723;28;20598;-65
2021/07/05 07:58:17;;;;;;;2.80;1.50;;;16.20;99.90;;;;;;5069821;28;20040;-65
2021/07/05 08:00:42;;;;;;;3.47;1.75;;;16.30;99.90;;;;;;5066702;28;20044;-65
2021/07/05 08:03:09;;;;;;;5.47;1.85;;;16.30;99.90;;;;;;5068615;28;20495;-64
2021/07/05 08:05:35;;;;;;;5.72;1.55;;;16.40;99.90;;;;;;5066715;28;20063;-65
2021/07/05 08:08:00;;;;;;;3.63;1.20;;;16.40;99.90;;;;;;5067912;28;20394;-65
2021/07/05 08:10:26;;;;;;;6.28;1.42;;;16.50;99.90;;;;;;5072031;28;20044;-65
2021/07/05 08:12:52;;;;;;;3.90;1.52;;;16.60;99.90;;;;;;5068761;28;20036;-65
2021/07/05 08:15:18;;;;;;;4.43;1.73;;;16.80;99.90;;;;;;5067244;28;20490;-65
2021/07/05 08:17:44;;;;;;;3.67;1.67;;;16.90;99.90;;;;;;5069935;28;20039;-65
2021/07/05 08:20:10;;;;;;;3.85;2.10;;;17.10;99.90;;;;;;5071773;28;20075;-65
2021/07/05 08:22:37;;;;;;;7.25;3.00;;;17.30;99.90;;;;;;5068676;28;20051;-65
2021/07/05 08:25:05;;;;;;;4.50;2.10;;;17.50;99.90;;;;;;5079454;28;20036;-65
2021/07/05 08:27:33;;;;;;;5.15;2.55;;;17.60;99.90;;;;;;5067268;28;20041;-65
2021/07/05 08:30:00;;;;;;;6.18;3.00;;;17.80;99.90;;;;;;5065335;28;20467;-65
2021/07/05 08:32:26;;;;;;;6.38;3.60;;;18.00;99.90;;;;;;5066386;28;20044;-65
2021/07/05 08:34:52;;;;;;;26.95;6.45;;;18.10;99.90;;;;;;5062016;28;20478;-65
2021/07/05 08:37:18;;;;;;;6.43;3.55;;;18.20;99.90;;;;;;5065885;28;20144;-65
2021/07/05 08:39:44;;;;;;;13.10;3.83;;;18.30;99.90;;;;;;5064887;28;20052;-65
2021/07/05 08:42:09;;;;;;;18.10;5.30;;;18.30;99.90;;;;;;5064817;28;20167;-65
2021/07/05 08:44:38;;;;;;;8.57;5.85;;;18.20;99.90;;;;;;5062335;28;20036;-65
2021/07/05 08:47:04;;;;;;;9.88;5.57;;;18.30;99.90;;;;;;5065603;28;20047;-65
2021/07/05 08:49:32;;;;;;;6.88;5.53;;;18.20;99.90;;;;;;5065727;28;20040;-65
2021/07/05 08:51:58;;;;;;;16.88;6.57;;;18.20;99.90;;;;;;5063970;28;20040;-65
2021/07/05 08:54:24;;;;;;;12.63;6.68;;;18.30;99.90;;;;;;5063343;28;20074;-65
2021/07/05 08:56:50;;;;;;;10.95;6.50;;;18.40;99.90;;;;;;5063859;28;20622;-65
2021/07/05 08:59:16;;;;;;;11.13;5.68;;;18.50;99.90;;;;;;5063289;28;20044;-65
2021/07/05 09:01:42;;;;;;;10.77;6.18;;;18.50;99.90;;;;;;5065866;28;20081;-65
2021/07/05 09:04:13;;;;;;;11.07;6.53;;;18.50;99.90;;;;;;5062271;28;20547;-65
2021/07/05 09:07:04;;;;;;;11.60;6.55;;;18.50;99.90;;;;;;5065056;28;20270;-65
2021/07/05 09:09:37;;;;;;;10.25;6.88;;;18.40;99.90;;;;;;5068441;28;20045;-66
2021/07/05 09:12:08;;;;;;;15.35;7.45;;;18.30;99.90;;;;;;5069956;28;20103;-65
2021/07/05 09:14:37;;;;;;;11.30;7.45;;;18.20;99.90;;;;;;5065275;28;20040;-65
2021/07/05 09:17:11;;;;;;;16.35;7.65;;;18.20;99.90;;;;;;5063731;28;20196;-65
2021/07/05 09:19:39;;;;;;;10.00;7.22;;;18.00;99.90;;;;;;5067471;28;20050;-65
2021/07/05 09:22:07;;;;;;;13.88;8.63;;;17.90;99.90;;;;;;5065736;28;20044;-65
2021/07/05 09:24:44;;;;;;;12.05;8.02;;;17.90;99.90;;;;;;5063047;28;20096;-65
2021/07/05 09:27:34;;;;;;;14.70;8.80;;;17.90;99.90;;;;;;5066566;28;20044;-65
2021/07/05 09:30:09;;;;;;;10.73;8.20;;;17.90;99.90;;;;;;5063690;28;20093;-65
2021/07/05 09:32:35;;;;;;;15.35;9.30;;;17.80;99.90;;;;;;5070534;28;20046;-65
2021/07/05 09:35:13;;;;;;;17.98;9.48;;;18.10;99.90;;;;;;5064755;28;20054;-65
2021/07/05 09:37:54;;;;;;;16.23;9.98;;;18.30;99.90;;;;;;5070857;28;20052;-65
2021/07/05 09:40:20;;;;;;;17.58;8.40;;;18.60;99.90;;;;;;5066829;28;20048;-65
2021/07/05 09:42:48;;;;;;;15.55;8.77;;;18.90;99.90;;;;;;5082119;28;20040;-65
2021/07/05 09:45:36;;;;;;;15.68;8.63;;;19.10;99.90;;;;;;5064001;28;20037;-65
2021/07/05 09:48:26;;;;;;;13.80;9.88;;;19.20;99.90;;;;;;5067620;28;20046;-65
2021/07/05 09:50:59;;;;;;;12.32;9.60;;;19.30;99.90;;;;;;5067528;28;20036;-66
2021/07/05 09:53:33;;;;;;;16.25;8.35;;;19.30;99.90;;;;;;5067986;28;20391;-65
2021/07/05 09:56:29;;;;;;;9.13;8.23;;;19.40;99.90;;;;;;5066234;28;20533;-65
2021/07/05 09:58:56;;;;;;;10.45;8.15;;;19.70;99.90;;;;;;5052057;28;20048;-66
2021/07/05 10:01:55;;;;;;;10.13;8.63;;;19.80;99.90;;;;;;5066639;28;20047;-66
2021/07/05 10:04:32;;;;;;;11.50;7.95;;;19.70;99.90;;;;;;5043306;28;20044;-66
2021/07/05 10:07:00;;;;;;;11.95;7.90;;;19.70;99.90;;;;;;5070083;28;20093;-66
2021/07/05 10:09:41;;;;;;;11.38;6.95;;;20.00;99.90;;;;;;5076941;28;20113;-66
2021/07/05 10:12:34;;;;;;;15.75;9.82;;;20.10;99.90;;;;;;5064517;28;20040;-65
2021/07/05 10:15:10;;;;;;;13.50;7.15;;;20.20;99.90;;;;;;5066516;28;20055;-66
2021/07/05 10:17:41;;;;;;;11.40;7.13;;;20.30;99.90;;;;;;5072462;28;20051;-66
2021/07/05 10:20:11;;;;;;;12.10;7.63;;;20.30;99.90;;;;;;5070411;28;20043;-66
2021/07/05 10:22:38;;;;;;;16.08;7.80;;;20.20;99.90;;;;;;5068958;28;20121;-66
2021/07/05 10:25:06;;;;;;;12.02;7.47;;;20.20;99.90;;;;;;5071614;28;20047;-66
2021/07/05 10:27:33;;;;;;;14.43;9.35;;;20.20;99.90;;;;;;5068279;28;20048;-66
2021/07/05 10:30:00;;;;;;;10.35;8.25;;;20.30;99.90;;;;;;5068170;28;20048;-66
2021/07/05 10:32:26;;;;;;;17.27;9.23;;;20.40;99.90;;;;;;5068154;28;20101;-65
2021/07/05 10:34:54;;;;;;;11.68;8.77;;;20.40;99.90;;;;;;5065572;28;20036;-66
2021/07/05 10:37:43;;;;;;;10.07;7.47;;;20.50;99.90;;;;;;5071002;28;20040;-66
2021/07/05 10:40:11;;;;;;;12.18;8.50;;;20.50;99.90;;;;;;5069393;28;20039;-66
2021/07/05 10:42:42;;;;;;;11.07;7.45;;;20.50;99.90;;;;;;5069031;28;20051;-66
2021/07/05 10:45:16;;;;;;;11.95;7.53;;;20.50;99.90;;;;;;5069127;28;20446;-66
2021/07/05 10:47:52;;;;;;;10.63;8.40;;;20.60;99.90;;;;;;5069085;28;20739;-66
2021/07/05 10:50:47;;;;;;;10.63;8.05;;;20.70;99.90;;;;;;5064526;28;20066;-66
2021/07/05 10:53:16;;;;;;;10.23;7.70;;;20.80;99.90;;;;;;5068818;28;20097;-65
2021/07/05 10:55:47;;;;;;;12.13;7.63;;;20.90;99.70;;;;;;5062859;28;20193;-66
2021/07/05 10:58:14;;;;;;;12.25;8.07;;;20.90;99.60;;;;;;5068770;28;20044;-66
2021/07/05 11:00:42;;;;;;;10.77;7.45;;;20.80;99.90;;;;;;5069784;28;20048;-66
2021/07/05 11:03:08;;;;;;;11.20;7.35;;;20.70;99.80;;;;;;5069202;28;20126;-66
2021/07/05 11:05:47;;;;;;;11.88;7.53;;;20.70;99.90;;;;;;5066383;28;20629;-66
2021/07/05 11:08:34;;;;;;;13.85;8.70;;;20.70;99.70;;;;;;5069012;28;20040;-66
2021/07/05 11:11:10;;;;;;;16.73;8.68;;;20.60;99.90;;;;;;5072694;28;20068;-66
2021/07/05 11:13:37;;;;;;;13.25;8.27;;;20.50;99.90;;;;;;5068976;28;21654;-66
2021/07/05 11:16:04;;;;;;;11.18;7.90;;;20.50;99.80;;;;;;5067192;28;20120;-66
2021/07/05 11:18:36;;;;;;;11.57;8.70;;;20.40;99.90;;;;;;5069344;28;20044;-66
2021/07/05 11:21:09;;;;;;;11.50;7.57;;;20.50;99.90;;;;;;5069515;28;20125;-66
2021/07/05 11:24:12;;;;;;;8.93;6.90;;;20.60;99.30;;;;;;5067799;28;20071;-66
2021/07/05 11:26:41;;;;;;;14.55;6.80;;;20.90;99.90;;;;;;5027612;28;20051;-66
2021/07/05 11:29:16;;;;;;;8.98;5.50;;;21.10;99.40;;;;;;5066657;28;20109;-66
2021/07/05 11:32:03;;;;;;;10.88;6.45;;;21.40;98.20;;;;;;5067184;28;20037;-66
2021/07/05 11:34:30;;;;;;;12.15;6.63;;;21.70;98.80;;;;;;5066805;28;21950;-66
2021/07/05 11:37:11;;;;;;;10.48;6.00;;;21.90;97.50;;;;;;5064663;28;20043;-66
2021/07/05 11:39:38;;;;;;;12.80;6.22;;;22.00;96.60;;;;;;5066132;28;20052;-66
2021/07/05 11:42:04;;;;;;;12.07;5.38;;;22.10;97.60;;;;;;5070198;28;20733;-66
2021/07/05 11:44:48;;;;;;;12.25;5.55;;;22.30;96.60;;;;;;5067157;28;20390;-66
2021/07/05 11:47:36;;;;;;;10.77;6.65;;;22.50;95.90;;;;;;5066020;28;20082;-66
2021/07/05 11:50:25;;;;;;;12.38;6.50;;;22.80;96.00;;;;;;5064461;28;20036;-66
2021/07/05 11:52:54;;;;;;;10.00;6.18;;;22.90;96.50;;;;;;5066574;28;20052;-66
2021/07/05 11:55:22;;;;;;;9.93;5.60;;;23.00;95.40;;;;;;5066278;28;20992;-66
2021/07/05 11:57:54;;;;;;;16.58;8.20;;;23.10;95.90;;;;;;5069085;28;21024;-66
2021/07/05 12:00:31;;;;;;;13.88;6.43;;;23.10;95.70;;;;;;5068143;28;20130;-66
2021/07/05 12:03:12;;;;;;;10.52;5.72;;;23.20;94.20;;;;;;5070070;28;20036;-66
2021/07/05 12:05:41;;;;;;;8.70;5.45;;;23.30;94.80;;;;;;5066507;28;20493;-66
2021/07/05 12:08:09;;;;;;;8.07;4.57;;;23.40;95.20;;;;;;5070622;28;20040;-66
2021/07/05 12:10:37;;;;;;;11.48;5.95;;;23.50;94.60;;;;;;5069100;28;21607;-66
2021/07/05 12:13:35;;;;;;;10.27;6.10;;;23.60;93.90;;;;;;5071247;28;20155;-66
2021/07/05 12:16:07;;;;;;;7.70;3.60;;;23.70;95.00;;;;;;5033060;28;20048;-66
2021/07/05 12:18:33;;;;;;;10.50;4.45;;;23.70;91.90;;;;;;5070394;28;20040;-66
2021/07/05 12:21:01;;;;;;;8.48;4.15;;;23.70;91.50;;;;;;5068574;28;22331;-66
2021/07/05 12:23:38;;;;;;;10.77;4.35;;;23.60;92.00;;;;;;5069275;28;20136;-66
2021/07/05 12:26:13;;;;;;;8.65;3.80;;;23.50;93.10;;;;;;5065235;28;20043;-66
2021/07/05 12:29:20;;;;;;;9.13;4.20;;;23.20;91.50;;;;;;5070913;28;20048;-66
2021/07/05 12:32:07;;;;;;;9.27;4.78;;;23.00;92.60;;;;;;5069494;28;20573;-66
2021/07/05 12:35:00;;;;;;;10.15;3.97;;;22.70;94.30;;;;;;5065428;28;20147;-66
2021/07/05 12:37:32;;;;;;;7.30;3.95;;;22.60;93.70;;;;;;5068359;28;20040;-66
2021/07/05 12:40:06;;;;;;;9.38;4.70;;;22.50;93.30;;;;;;5068176;28;20052;-66
2021/07/05 12:42:41;;;;;;;7.53;4.63;;;22.30;94.20;;;;;;5067723;28;20051;-66
2021/07/05 12:45:28;;;;;;;8.07;4.00;;;22.20;94.80;;;;;;5065254;28;20051;-66